Time;durP1;ratioP1;P1;durP2;ratioP2;P2;SDS_P1;SDS_P2;PMS_P1;PMS_P2;Temp;Humidity;BMP_temperature;BMP_pressure;BME280_temperature;BME280_humidity;BME280_pressure;Samples;Min_cycle;Max_cycle;Signal;HPM_P1;HPM_P2
2023/11/24 00:02:06;;;;;;;;;;;;;;;;;;5085016;28;19935;-80
2023/11/24 00:04:32;;;;;;;;;;;;;;;;;;5080803;28;20005;-81
2023/11/24 00:06:58;;;;;;;;;;;;;;;;;;5090620;28;19966;-79
2023/11/24 00:09:27;;;;;;;;;;;;;;;;;;5085290;28;19959;-81
2023/11/24 00:11:53;;;;;;;;;;;;;;;;;;5084214;28;19960;-79
2023/11/24 00:14:18;;;;;;;;;;;;;;;;;;5065677;28;19951;-81
2023/11/24 00:16:44;;;;;;;;;;;;;;;;;;5086101;28;19939;-79
2023/11/24 00:19:13;;;;;;;;;;;;;;;;;;5079799;28;19977;-80
2023/11/24 00:21:40;;;;;;;;;;;;;;;;;;5081669;28;19986;-80
2023/11/24 00:24:06;;;;;;;;;;;;;;;;;;5090320;28;20012;-80
2023/11/24 00:26:32;;;;;;;;;;;;;;;;;;5088651;28;19998;-80
2023/11/24 00:28:58;;;;;;;;;;;;;;;;;;5085585;28;20372;-80
2023/11/24 00:31:24;;;;;;;;;;;;;;;;;;5089246;28;19959;-80
2023/11/24 00:33:50;;;;;;;;;;;;;;;;;;5089117;28;19939;-80
2023/11/24 00:36:16;;;;;;;;;;;;;;;;;;5080894;28;19974;-80
2023/11/24 00:38:42;;;;;;;;;;;;;;;;;;5092434;28;19951;-80
2023/11/24 00:41:09;;;;;;;;;;;;;;;;;;5087741;28;20351;-80
2023/11/24 00:43:36;;;;;;;;;;;;;;;;;;5088832;28;19981;-79
2023/11/24 00:46:02;;;;;;;;;;;;;;;;;;5082792;28;19963;-81
2023/11/24 00:48:28;;;;;;;;;;;;;;;;;;5084244;28;19951;-80
2023/11/24 00:50:54;;;;;;;;;;;;;;;;;;5088110;28;19955;-80
2023/11/24 00:53:21;;;;;;;;;;;;;;;;;;5090680;28;20458;-78
2023/11/24 00:55:47;;;;;;;;;;;;;;;;;;5071827;28;20254;-81
2023/11/24 00:58:13;;;;;;;;;;;;;;;;;;5087933;28;20355;-79
2023/11/24 01:00:39;;;;;;;;;;;;;;;;;;5084995;28;19940;-80
2023/11/24 01:03:08;;;;;;;;;;;;;;;;;;5085885;28;19947;-80
2023/11/24 01:05:34;;;;;;;;;;;;;;;;;;5083672;28;19916;-80
2023/11/24 01:08:00;;;;;;;;;;;;;;;;;;5088029;28;19912;-79
2023/11/24 01:10:26;;;;;;;;;;;;;;;;;;5089032;28;20026;-79
2023/11/24 01:12:52;;;;;;;;;;;;;;;;;;5091109;28;19969;-80
2023/11/24 01:15:17;;;;;;;;;;;;;;;;;;5080568;28;19963;-79
2023/11/24 01:17:44;;;;;;;;;;;;;;;;;;5088017;28;20347;-79
2023/11/24 01:20:10;;;;;;;;;;;;;;;;;;5086953;28;19927;-81
2023/11/24 01:22:36;;;;;;;;;;;;;;;;;;5079110;28;19951;-80
2023/11/24 01:25:02;;;;;;;;;;;;;;;;;;5070568;28;20019;-80
2023/11/24 01:27:28;;;;;;;;;;;;;;;;;;5083472;28;19958;-79
2023/11/24 01:29:54;;;;;;;;;;;;;;;;;;5087809;28;20385;-82
2023/11/24 01:32:20;;;;;;;;;;;;;;;;;;5085859;28;20401;-80
2023/11/24 01:34:46;;;;;;;;;;;;;;;;;;5090035;28;19950;-79
2023/11/24 01:37:12;;;;;;;;;;;;;;;;;;5084126;28;19958;-82
2023/11/24 01:39:38;;;;;;;;;;;;;;;;;;5091338;28;20000;-82
2023/11/24 01:42:04;;;;;;;;;;;;;;;;;;5087617;28;19992;-81
2023/11/24 01:44:30;;;;;;;;;;;;;;;;;;5084709;28;19916;-81
2023/11/24 01:46:56;;;;;;;;;;;;;;;;;;5082924;28;19920;-82
2023/11/24 01:49:22;;;;;;;;;;;;;;;;;;5087035;28;19969;-82
2023/11/24 01:51:48;;;;;;;;;;;;;;;;;;5080648;28;20003;-82
2023/11/24 01:54:14;;;;;;;;;;;;;;;;;;5087357;28;20013;-82
2023/11/24 01:56:40;;;;;;;;;;;;;;;;;;5080865;28;20322;-81
2023/11/24 01:59:06;;;;;;;;;;;;;;;;;;5087112;28;20000;-81
2023/11/24 02:01:32;;;;;;;;;;;;;;;;;;5083765;28;20353;-82
2023/11/24 02:03:58;;;;;;;;;;;;;;;;;;5087844;28;20376;-81
2023/11/24 02:06:23;;;;;;;;;;;;;;;;;;5084523;28;19954;-81
2023/11/24 02:08:49;;;;;;;;;;;;;;;;;;5086452;28;20332;-81
2023/11/24 02:11:15;;;;;;;;;;;;;;;;;;5087246;28;20093;-81
2023/11/24 02:13:41;;;;;;;;;;;;;;;;;;5087968;28;19959;-81
2023/11/24 02:16:07;;;;;;;;;;;;;;;;;;5081188;28;19908;-82
2023/11/24 02:18:33;;;;;;;;;;;;;;;;;;5079157;28;20295;-81
2023/11/24 02:21:00;;;;;;;;;;;;;;;;;;5086948;28;19912;-82
2023/11/24 02:23:27;;;;;;;;;;;;;;;;;;5086514;28;19912;-81
2023/11/24 02:25:53;;;;;;;;;;;;;;;;;;5075042;28;20002;-82
2023/11/24 02:28:19;;;;;;;;;;;;;;;;;;5084959;28;20094;-82
2023/11/24 02:30:45;;;;;;;;;;;;;;;;;;5087597;28;20123;-81
2023/11/24 02:33:11;;;;;;;;;;;;;;;;;;5073418;28;20338;-81
2023/11/24 02:35:39;;;;;;;;;;;;;;;;;;5085496;28;20336;-81
2023/11/24 02:38:05;;;;;;;;;;;;;;;;;;5083806;28;20370;-81
2023/11/24 02:40:32;;;;;;;;;;;;;;;;;;5067608;28;19986;-82
2023/11/24 02:42:59;;;;;;;;;;;;;;;;;;5081151;28;20029;-82
2023/11/24 02:45:25;;;;;;;;;;;;;;;;;;5085024;28;19922;-81
2023/11/24 02:47:51;;;;;;;;;;;;;;;;;;5083478;28;20380;-81
2023/11/24 02:50:17;;;;;;;;;;;;;;;;;;5087909;28;19969;-82
2023/11/24 02:52:44;;;;;;;;;;;;;;;;;;5077984;28;20177;-80
2023/11/24 02:55:11;;;;;;;;;;;;;;;;;;5078009;28;20216;-81
2023/11/24 02:57:37;;;;;;;;;;;;;;;;;;5084109;28;20329;-82
2023/11/24 03:00:05;;;;;;;;;;;;;;;;;;5084937;28;20026;-83
2023/11/24 03:02:31;;;;;;;;;;;;;;;;;;5083052;28;20010;-81
2023/11/24 03:04:57;;;;;;;;;;;;;;;;;;5056801;28;20030;-82
2023/11/24 03:07:24;;;;;;;;;;;;;;;;;;5085886;28;19969;-81
2023/11/24 03:09:50;;;;;;;;;;;;;;;;;;5081515;28;19915;-82
2023/11/24 03:12:16;;;;;;;;;;;;;;;;;;5077726;28;19916;-81
2023/11/24 03:14:43;;;;;;;;;;;;;;;;;;5083370;28;19997;-81
2023/11/24 03:17:08;;;;;;;;;;;;;;;;;;5082427;28;20287;-81
2023/11/24 03:19:34;;;;;;;;;;;;;;;;;;5086839;28;19982;-82
2023/11/24 03:22:00;;;;;;;;;;;;;;;;;;5081752;28;19951;-81
2023/11/24 03:24:26;;;;;;;;;;;;;;;;;;5083450;28;20146;-80
2023/11/24 03:26:52;;;;;;;;;;;;;;;;;;5082386;28;19995;-82
2023/11/24 03:29:18;;;;;;;;;;;;;;;;;;5073558;28;20057;-82
2023/11/24 03:31:44;;;;;;;;;;;;;;;;;;5086549;28;19970;-82
2023/11/24 03:34:10;;;;;;;;;;;;;;;;;;5087083;28;19965;-81
2023/11/24 03:36:36;;;;;;;;;;;;;;;;;;5081549;28;19935;-81
2023/11/24 03:39:02;;;;;;;;;;;;;;;;;;5076774;28;19912;-81
2023/11/24 03:41:28;;;;;;;;;;;;;;;;;;5080527;28;19997;-81
2023/11/24 03:43:54;;;;;;;;;;;;;;;;;;5068896;28;20391;-82
2023/11/24 03:46:20;;;;;;;;;;;;;;;;;;5086915;28;19955;-82
2023/11/24 03:48:46;;;;;;;;;;;;;;;;;;5077653;28;20007;-81
2023/11/24 03:51:12;;;;;;;;;;;;;;;;;;5073811;28;19999;-81
2023/11/24 03:53:38;;;;;;;;;;;;;;;;;;5083366;28;19953;-82
2023/11/24 03:56:06;;;;;;;;;;;;;;;;;;5073312;28;20355;-82
2023/11/24 03:58:32;;;;;;;;;;;;;;;;;;5082417;28;20279;-82
2023/11/24 04:00:58;;;;;;;;;;;;;;;;;;5077292;28;19919;-82
2023/11/24 04:03:24;;;;;;;;;;;;;;;;;;5085022;28;19922;-82
2023/11/24 04:05:50;;;;;;;;;;;;;;;;;;5081185;28;19951;-82
2023/11/24 04:08:16;;;;;;;;;;;;;;;;;;5078138;28;19963;-81
2023/11/24 04:10:42;;;;;;;;;;;;;;;;;;5084460;28;20286;-81
2023/11/24 04:13:08;;;;;;;;;;;;;;;;;;5081756;28;19915;-82
2023/11/24 04:15:34;;;;;;;;;;;;;;;;;;5084051;28;20647;-83
2023/11/24 04:18:00;;;;;;;;;;;;;;;;;;5085267;28;19946;-81
2023/11/24 04:20:26;;;;;;;;;;;;;;;;;;5083664;28;19966;-81
2023/11/24 04:22:52;;;;;;;;;;;;;;;;;;5076839;28;19951;-80
2023/11/24 04:25:18;;;;;;;;;;;;;;;;;;5065946;28;19959;-81
2023/11/24 04:27:44;;;;;;;;;;;;;;;;;;5061210;28;20039;-80
2023/11/24 04:30:10;;;;;;;;;;;;;;;;;;5080060;28;20342;-81
2023/11/24 04:32:36;;;;;;;;;;;;;;;;;;5077731;28;19916;-81
2023/11/24 04:35:02;;;;;;;;;;;;;;;;;;5080933;28;20335;-80
2023/11/24 04:37:28;;;;;;;;;;;;;;;;;;5074535;28;20379;-81
2023/11/24 04:39:55;;;;;;;;;;;;;;;;;;5067931;28;20020;-80
2023/11/24 04:42:21;;;;;;;;;;;;;;;;;;5084755;28;19973;-80
2023/11/24 04:44:47;;;;;;;;;;;;;;;;;;5085923;28;19973;-80
2023/11/24 04:47:13;;;;;;;;;;;;;;;;;;5076673;28;20484;-80
2023/11/24 04:49:39;;;;;;;;;;;;;;;;;;5080578;28;19919;-80
2023/11/24 04:52:05;;;;;;;;;;;;;;;;;;5078866;28;19964;-81
2023/11/24 04:54:31;;;;;;;;;;;;;;;;;;5080543;28;19966;-80
2023/11/24 04:56:57;;;;;;;;;;;;;;;;;;5064546;28;19955;-81
2023/11/24 04:59:26;;;;;;;;;;;;;;;;;;5073627;28;19955;-80
2023/11/24 05:01:52;;;;;;;;;;;;;;;;;;5071425;28;19915;-80
2023/11/24 05:04:18;;;;;;;;;;;;;;;;;;5088092;28;19943;-82
2023/11/24 05:06:44;;;;;;;;;;;;;;;;;;5085443;28;19989;-80
2023/11/24 05:09:11;;;;;;;;;;;;;;;;;;5077364;28;19969;-80
2023/11/24 05:11:38;;;;;;;;;;;;;;;;;;5082897;28;19912;-80
2023/11/24 05:14:04;;;;;;;;;;;;;;;;;;5098938;28;19987;-80
2023/11/24 05:16:31;;;;;;;;;;;;;;;;;;5101910;28;20259;-81
2023/11/24 05:18:57;;;;;;;;;;;;;;;;;;5087136;28;19911;-81
2023/11/24 05:21:23;;;;;;;;;;;;;;;;;;5080454;28;20328;-81
2023/11/24 05:23:49;;;;;;;;;;;;;;;;;;5077237;28;20247;-81
2023/11/24 05:26:15;;;;;;;;;;;;;;;;;;5078466;28;20012;-81
2023/11/24 05:28:41;;;;;;;;;;;;;;;;;;5086814;28;20012;-81
2023/11/24 05:31:07;;;;;;;;;;;;;;;;;;5081134;28;19963;-82
2023/11/24 05:33:33;;;;;;;;;;;;;;;;;;5086368;28;19924;-81
2023/11/24 05:35:59;;;;;;;;;;;;;;;;;;5090258;28;20363;-82
2023/11/24 05:38:25;;;;;;;;;;;;;;;;;;5090728;28;20351;-81
2023/11/24 05:40:51;;;;;;;;;;;;;;;;;;5087732;28;19970;-82
2023/11/24 05:43:17;;;;;;;;;;;;;;;;;;5095267;28;20327;-81
2023/11/24 05:45:42;;;;;;;;;;;;;;;;;;5083904;28;19963;-81
2023/11/24 05:48:08;;;;;;;;;;;;;;;;;;5096928;28;19977;-80
2023/11/24 05:50:34;;;;;;;;;;;;;;;;;;5087170;28;19963;-80
2023/11/24 05:53:00;;;;;;;;;;;;;;;;;;5087157;28;19949;-81
2023/11/24 05:55:26;;;;;;;;;;;;;;;;;;5089306;28;19990;-81
2023/11/24 05:57:52;;;;;;;;;;;;;;;;;;5088080;28;20276;-81
2023/11/24 06:00:18;;;;;;;;;;;;;;;;;;5095871;28;20374;-83
2023/11/24 06:02:44;;;;;;;;;;;;;;;;;;5085355;28;20013;-81
2023/11/24 06:05:11;;;;;;;;;;;;;;;;;;5082936;28;20328;-81
2023/11/24 06:07:37;;;;;;;;;;;;;;;;;;5089645;28;19971;-82
2023/11/24 06:10:05;;;;;;;;;;;;;;;;;;5068396;28;19930;-81
2023/11/24 06:12:31;;;;;;;;;;;;;;;;;;5085494;28;19912;-81
2023/11/24 06:14:57;;;;;;;;;;;;;;;;;;5088715;28;19912;-82
2023/11/24 06:17:23;;;;;;;;;;;;;;;;;;5082855;28;20344;-83
2023/11/24 06:19:49;;;;;;;;;;;;;;;;;;5089004;28;19958;-81
2023/11/24 06:22:15;;;;;;;;;;;;;;;;;;5089280;28;19986;-82
2023/11/24 06:24:41;;;;;;;;;;;;;;;;;;5090163;28;19966;-81
2023/11/24 06:27:07;;;;;;;;;;;;;;;;;;5083173;28;20614;-81
2023/11/24 06:29:34;;;;;;;;;;;;;;;;;;5086043;28;19908;-82
2023/11/24 06:32:00;;;;;;;;;;;;;;;;;;5058144;28;20339;-83
2023/11/24 06:34:26;;;;;;;;;;;;;;;;;;5085187;28;19908;-82
2023/11/24 06:36:52;;;;;;;;;;;;;;;;;;5087447;28;19907;-82
2023/11/24 06:39:19;;;;;;;;;;;;;;;;;;5089972;28;20260;-81
2023/11/24 06:41:45;;;;;;;;;;;;;;;;;;5087601;28;20605;-82
2023/11/24 06:44:11;;;;;;;;;;;;;;;;;;5089360;28;19995;-82
2023/11/24 06:46:37;;;;;;;;;;;;;;;;;;5082773;28;19950;-84
2023/11/24 06:49:06;;;;;;;;;;;;;;;;;;5088177;28;19962;-81
2023/11/24 06:51:32;;;;;;;;;;;;;;;;;;5083095;28;19924;-81
2023/11/24 06:53:58;;;;;;;;;;;;;;;;;;5085001;28;19957;-82
2023/11/24 06:56:25;;;;;;;;;;;;;;;;;;5083287;28;20379;-83
2023/11/24 06:58:54;;;;;;;;;;;;;;;;;;5083027;28;19962;-82
2023/11/24 07:01:20;;;;;;;;;;;;;;;;;;5087334;28;19908;-82
2023/11/24 07:03:46;;;;;;;;;;;;;;;;;;5083963;28;20372;-82
2023/11/24 07:06:13;;;;;;;;;;;;;;;;;;5072100;28;20336;-81
2023/11/24 07:08:39;;;;;;;;;;;;;;;;;;5068725;28;19944;-82
2023/11/24 07:11:05;;;;;;;;;;;;;;;;;;5054682;28;19966;-82
2023/11/24 07:13:31;;;;;;;;;;;;;;;;;;5089478;28;19955;-82
2023/11/24 07:15:57;;;;;;;;;;;;;;;;;;5088691;28;20365;-82
2023/11/24 07:18:23;;;;;;;;;;;;;;;;;;5087854;28;19904;-82
2023/11/24 07:20:49;;;;;;;;;;;;;;;;;;5086123;28;19986;-82
2023/11/24 07:23:15;;;;;;;;;;;;;;;;;;5086560;28;19963;-82
2023/11/24 07:25:43;;;;;;;;;;;;;;;;;;5087302;28;19995;-82
2023/11/24 07:28:09;;;;;;;;;;;;;;;;;;5084657;28;20327;-84
2023/11/24 07:30:35;;;;;;;;;;;;;;;;;;5089547;28;20005;-84
2023/11/24 07:33:01;;;;;;;;;;;;;;;;;;5089056;28;20438;-85
2023/11/24 07:35:27;;;;;;;;;;;;;;;;;;5070179;28;20034;-85
2023/11/24 07:37:53;;;;;;;;;;;;;;;;;;5088748;28;20260;-81
2023/11/24 07:40:20;;;;;;;;;;;;;;;;;;5088737;28;19994;-82
2023/11/24 07:42:46;;;;;;;;;;;;;;;;;;5088678;28;19911;-82
2023/11/24 07:45:12;;;;;;;;;;;;;;;;;;5089126;28;20272;-82
2023/11/24 07:47:39;;;;;;;;;;;;;;;;;;5053034;28;20364;-83
2023/11/24 07:50:05;;;;;;;;;;;;;;;;;;5087371;28;19919;-82
2023/11/24 07:52:31;;;;;;;;;;;;;;;;;;5087358;28;19948;-82
2023/11/24 07:54:57;;;;;;;;;;;;;;;;;;5089167;28;20359;-82
2023/11/24 07:57:26;;;;;;;;;;;;;;;;;;5077982;28;19966;-82
2023/11/24 07:59:52;;;;;;;;;;;;;;;;;;5089188;28;19926;-82
2023/11/24 08:02:18;;;;;;;;;;;;;;;;;;5088253;28;20080;-81
2023/11/24 08:04:45;;;;;;;;;;;;;;;;;;5085035;28;19915;-81
2023/11/24 08:07:10;;;;;;;;;;;;;;;;;;5081257;28;20411;-82
2023/11/24 08:09:36;;;;;;;;;;;;;;;;;;5088840;28;19998;-82
2023/11/24 08:12:04;;;;;;;;;;;;;;;;;;5075710;28;19923;-83
2023/11/24 08:14:30;;;;;;;;;;;;;;;;;;5068671;28;19919;-82
2023/11/24 08:16:56;;;;;;;;;;;;;;;;;;5050328;28;20466;-82
2023/11/24 08:19:25;;;;;;;;;;;;;;;;;;5069673;28;20427;-83
2023/11/24 08:21:51;;;;;;;;;;;;;;;;;;5091230;28;19915;-82
2023/11/24 08:24:17;;;;;;;;;;;;;;;;;;5092937;28;19943;-82
2023/11/24 08:26:43;;;;;;;;;;;;;;;;;;5091233;28;19919;-82
2023/11/24 08:29:09;;;;;;;;;;;;;;;;;;5093202;28;19983;-81
2023/11/24 08:31:35;;;;;;;;;;;;;;;;;;5092253;28;19963;-81
2023/11/24 08:34:01;;;;;;;;;;;;;;;;;;5073457;28;19935;-81
2023/11/24 08:36:27;;;;;;;;;;;;;;;;;;5091231;28;19958;-82
2023/11/24 08:38:53;;;;;;;;;;;;;;;;;;5092235;28;19939;-82
2023/11/24 08:41:19;;;;;;;;;;;;;;;;;;5091529;28;19911;-82
2023/11/24 08:43:45;;;;;;;;;;;;;;;;;;5076601;28;19978;-82
2023/11/24 08:46:11;;;;;;;;;;;;;;;;;;5088667;28;19951;-82
2023/11/24 08:48:38;;;;;;;;;;;;;;;;;;5092493;28;19908;-81
2023/11/24 08:51:04;;;;;;;;;;;;;;;;;;5091195;28;20014;-81
2023/11/24 08:53:30;;;;;;;;;;;;;;;;;;5091922;28;19919;-82
2023/11/24 08:55:56;;;;;;;;;;;;;;;;;;5091595;28;20331;-82
2023/11/24 08:58:22;;;;;;;;;;;;;;;;;;5091592;28;19950;-81
2023/11/24 09:00:49;;;;;;;;;;;;;;;;;;5092141;28;19991;-82
2023/11/24 09:03:17;;;;;;;;;;;;;;;;;;5091777;28;19908;-80
2023/11/24 09:05:43;;;;;;;;;;;;;;;;;;5089967;28;20371;-82
2023/11/24 09:08:09;;;;;;;;;;;;;;;;;;5092476;28;19915;-81
2023/11/24 09:10:35;;;;;;;;;;;;;;;;;;5091530;28;20418;-82
2023/11/24 09:13:00;;;;;;;;;;;;;;;;;;5086010;28;19985;-80
2023/11/24 09:15:26;;;;;;;;;;;;;;;;;;5091559;28;20110;-82
2023/11/24 09:17:53;;;;;;;;;;;;;;;;;;5090355;28;19962;-81
2023/11/24 09:20:19;;;;;;;;;;;;;;;;;;5091571;28;20271;-82
2023/11/24 09:22:45;;;;;;;;;;;;;;;;;;5075016;28;20343;-80
2023/11/24 09:25:11;;;;;;;;;;;;;;;;;;5073178;28;19951;-79
2023/11/24 09:27:38;;;;;;;;;;;;;;;;;;5090472;28;19908;-80
2023/11/24 09:30:04;;;;;;;;;;;;;;;;;;5091347;28;19908;-82
2023/11/24 09:32:31;;;;;;;;;;;;;;;;;;5074557;28;19913;-80
2023/11/24 09:34:57;;;;;;;;;;;;;;;;;;5071164;28;19905;-80
2023/11/24 09:37:23;;;;;;;;;;;;;;;;;;5085868;28;19958;-80
2023/11/24 09:39:49;;;;;;;;;;;;;;;;;;5091229;28;20333;-81
2023/11/24 09:42:15;;;;;;;;;;;;;;;;;;5090546;28;20023;-81
2023/11/24 09:44:42;;;;;;;;;;;;;;;;;;5091416;28;19904;-81
2023/11/24 09:47:08;;;;;;;;;;;;;;;;;;5090881;28;20049;-81
2023/11/24 09:49:34;;;;;;;;;;;;;;;;;;5091536;28;20325;-81
2023/11/24 09:52:00;;;;;;;;;;;;;;;;;;5088891;28;19977;-80
2023/11/24 09:54:26;;;;;;;;;;;;;;;;;;5091098;28;19954;-81
2023/11/24 09:56:52;;;;;;;;;;;;;;;;;;5080486;28;19958;-80
2023/11/24 09:59:18;;;;;;;;;;;;;;;;;;5089974;28;19916;-84
2023/11/24 10:01:44;;;;;;;;;;;;;;;;;;5084342;28;19916;-85
2023/11/24 10:04:10;;;;;;;;;;;;;;;;;;5091365;28;19959;-84
2023/11/24 10:06:41;;;;;;;;;;;;;;;;;;5090391;28;19950;-84
2023/11/24 10:09:10;;;;;;;;;;;;;;;;;;5091306;28;19977;-85
2023/11/24 10:11:38;;;;;;;;;;;;;;;;;;5081629;28;19931;-84
2023/11/24 10:14:04;;;;;;;;;;;;;;;;;;5066653;28;19916;-85
2023/11/24 10:16:30;;;;;;;;;;;;;;;;;;5090739;28;20101;-84
2023/11/24 10:18:56;;;;;;;;;;;;;;;;;;5072425;28;19904;-85
2023/11/24 10:21:22;;;;;;;;;;;;;;;;;;5083298;28;20233;-84
2023/11/24 10:23:51;;;;;;;;;;;;;;;;;;5090102;28;19911;-84
2023/11/24 10:26:17;;;;;;;;;;;;;;;;;;5075563;28;19965;-84
2023/11/24 10:28:44;;;;;;;;;;;;;;;;;;5090452;28;19908;-84
2023/11/24 10:31:12;;;;;;;;;;;;;;;;;;5091203;28;19919;-85
2023/11/24 10:33:38;;;;;;;;;;;;;;;;;;5091090;28;20475;-85
2023/11/24 10:36:04;;;;;;;;;;;;;;;;;;5089912;28;20181;-85
2023/11/24 10:38:33;;;;;;;;;;;;;;;;;;5090994;28;19960;-85
2023/11/24 10:40:59;;;;;;;;;;;;;;;;;;5086812;28;20251;-84
2023/11/24 10:43:25;;;;;;;;;;;;;;;;;;5075462;28;20401;-84
2023/11/24 10:45:51;;;;;;;;;;;;;;;;;;5090022;28;20431;-84
2023/11/24 10:48:17;;;;;;;;;;;;;;;;;;5090469;28;20219;-84
2023/11/24 10:50:43;;;;;;;;;;;;;;;;;;5088789;28;19931;-84
2023/11/24 10:53:09;;;;;;;;;;;;;;;;;;5083564;28;19959;-84
2023/11/24 10:55:36;;;;;;;;;;;;;;;;;;5071299;28;19955;-84
2023/11/24 10:58:02;;;;;;;;;;;;;;;;;;5090213;28;19908;-84
2023/11/24 11:00:29;;;;;;;;;;;;;;;;;;5093749;28;19903;-83
2023/11/24 11:02:55;;;;;;;;;;;;;;;;;;5090285;28;20387;-82
2023/11/24 11:05:21;;;;;;;;;;;;;;;;;;5089828;28;19908;-84
2023/11/24 11:07:52;;;;;;;;;;;;;;;;;;5089474;28;19942;-84
2023/11/24 11:10:25;;;;;;;;;;;;;;;;;;5089802;28;19918;-81
2023/11/24 11:12:53;;;;;;;;;;;;;;;;;;5053432;28;20133;-81
2023/11/24 11:15:19;;;;;;;;;;;;;;;;;;5089611;28;20421;-80
2023/11/24 11:17:47;;;;;;;;;;;;;;;;;;5089609;28;19969;-79
2023/11/24 11:20:15;;;;;;;;;;;;;;;;;;5089500;28;20602;-80
2023/11/24 11:22:42;;;;;;;;;;;;;;;;;;5080903;28;20456;-82
2023/11/24 11:25:08;;;;;;;;;;;;;;;;;;5088685;28;19969;-80
2023/11/24 11:27:36;;;;;;;;;;;;;;;;;;5072513;28;19962;-79
2023/11/24 11:30:04;;;;;;;;;;;;;;;;;;5085847;28;19935;-81
2023/11/24 11:32:31;;;;;;;;;;;;;;;;;;5089378;28;20379;-81
2023/11/24 11:34:57;;;;;;;;;;;;;;;;;;5070948;28;19915;-81
2023/11/24 11:37:24;;;;;;;;;;;;;;;;;;5088341;28;19936;-83
2023/11/24 11:39:53;;;;;;;;;;;;;;;;;;5089653;28;20292;-82
2023/11/24 11:42:19;;;;;;;;;;;;;;;;;;5087644;28;19912;-80
2023/11/24 11:44:48;;;;;;;;;;;;;;;;;;5089225;28;20264;-81
2023/11/24 11:47:20;;;;;;;;;;;;;;;;;;5089300;28;20315;-81
2023/11/24 11:49:51;;;;;;;;;;;;;;;;;;5089155;28;20010;-81
2023/11/24 11:52:17;;;;;;;;;;;;;;;;;;5087498;28;20291;-80
2023/11/24 11:54:45;;;;;;;;;;;;;;;;;;5091466;28;20072;-81
2023/11/24 11:57:11;;;;;;;;;;;;;;;;;;5082237;28;19916;-80
2023/11/24 11:59:37;;;;;;;;;;;;;;;;;;5086454;28;20551;-81
2023/11/24 12:02:04;;;;;;;;;;;;;;;;;;5088777;28;19996;-80
2023/11/24 12:04:30;;;;;;;;;;;;;;;;;;5095959;28;20331;-81
2023/11/24 12:06:56;;;;;;;;;;;;;;;;;;5094921;28;20124;-82
2023/11/24 12:09:23;;;;;;;;;;;;;;;;;;5096233;28;20344;-81
2023/11/24 12:11:49;;;;;;;;;;;;;;;;;;5084649;28;20513;-82
2023/11/24 12:14:14;;;;;;;;;;;;;;;;;;5081829;28;20063;-82
2023/11/24 12:16:40;;;;;;;;;;;;;;;;;;5095741;28;19998;-82
2023/11/24 12:19:07;;;;;;;;;;;;;;;;;;5093046;28;19915;-84
2023/11/24 12:21:33;;;;;;;;;;;;;;;;;;5089764;28;20368;-84
2023/11/24 12:23:59;;;;;;;;;;;;;;;;;;5085978;28;19943;-84
2023/11/24 12:26:25;;;;;;;;;;;;;;;;;;5069812;28;19912;-84
2023/11/24 12:28:51;;;;;;;;;;;;;;;;;;5076185;28;19952;-84
2023/11/24 12:31:17;;;;;;;;;;;;;;;;;;5080102;28;19966;-84
2023/11/24 12:33:43;;;;;;;;;;;;;;;;;;5090574;28;19916;-84
2023/11/24 12:36:09;;;;;;;;;;;;;;;;;;5089577;28;19912;-84
2023/11/24 12:38:35;;;;;;;;;;;;;;;;;;5081642;28;19912;-85
2023/11/24 12:41:05;;;;;;;;;;;;;;;;;;5088078;28;20000;-84
2023/11/24 12:43:32;;;;;;;;;;;;;;;;;;5091925;28;19919;-84
2023/11/24 12:45:58;;;;;;;;;;;;;;;;;;5087196;28;19908;-84
2023/11/24 12:48:24;;;;;;;;;;;;;;;;;;5085910;28;20311;-84
2023/11/24 12:50:50;;;;;;;;;;;;;;;;;;5087510;28;21437;-84
2023/11/24 12:53:16;;;;;;;;;;;;;;;;;;5056615;28;19920;-84
2023/11/24 12:55:42;;;;;;;;;;;;;;;;;;5074414;28;20335;-83
2023/11/24 12:58:08;;;;;;;;;;;;;;;;;;5089481;28;19990;-84
2023/11/24 13:00:34;;;;;;;;;;;;;;;;;;5088884;28;20023;-83
2023/11/24 13:03:00;;;;;;;;;;;;;;;;;;5078432;28;19909;-83
2023/11/24 13:05:26;;;;;;;;;;;;;;;;;;5080305;28;19969;-83
2023/11/24 13:07:52;;;;;;;;;;;;;;;;;;5085744;28;20063;-82
2023/11/24 13:10:19;;;;;;;;;;;;;;;;;;5086966;28;19920;-83
2023/11/24 13:12:45;;;;;;;;;;;;;;;;;;5077411;28;20007;-83
2023/11/24 13:15:12;;;;;;;;;;;;;;;;;;5084473;28;20019;-85
2023/11/24 13:17:38;;;;;;;;;;;;;;;;;;5082909;28;19998;-83
2023/11/24 13:20:05;;;;;;;;;;;;;;;;;;5086055;28;20267;-84
2023/11/24 13:22:34;;;;;;;;;;;;;;;;;;5075153;28;19908;-82
2023/11/24 13:25:00;;;;;;;;;;;;;;;;;;5077209;28;19914;-83
2023/11/24 13:27:27;;;;;;;;;;;;;;;;;;5083925;28;20324;-86
2023/11/24 13:29:53;;;;;;;;;;;;;;;;;;5078557;28;19999;-83
2023/11/24 13:32:19;;;;;;;;;;;;;;;;;;5090980;28;20007;-83
2023/11/24 13:34:44;;;;;;;;;;;;;;;;;;5088027;28;20092;-83
2023/11/24 13:37:11;;;;;;;;;;;;;;;;;;5082877;28;19947;-81
2023/11/24 13:39:37;;;;;;;;;;;;;;;;;;5075398;28;19919;-82
2023/11/24 13:42:03;;;;;;;;;;;;;;;;;;5070767;28;20377;-82
2023/11/24 13:44:29;;;;;;;;;;;;;;;;;;5071515;28;20294;-82
2023/11/24 13:46:56;;;;;;;;;;;;;;;;;;5063769;28;20375;-83
2023/11/24 13:49:22;;;;;;;;;;;;;;;;;;5085910;28;19912;-81
2023/11/24 13:51:48;;;;;;;;;;;;;;;;;;5087022;28;20050;-81
2023/11/24 13:54:15;;;;;;;;;;;;;;;;;;5090677;28;20000;-82
2023/11/24 13:56:41;;;;;;;;;;;;;;;;;;5089613;28;20373;-82
2023/11/24 13:59:07;;;;;;;;;;;;;;;;;;5088286;28;19946;-81
2023/11/24 14:01:33;;;;;;;;;;;;;;;;;;5087409;28;20332;-81
2023/11/24 14:03:59;;;;;;;;;;;;;;;;;;5071780;28;19959;-81
2023/11/24 14:06:26;;;;;;;;;;;;;;;;;;5086928;28;20361;-81
2023/11/24 14:08:52;;;;;;;;;;;;;;;;;;5073308;28;19990;-81
2023/11/24 14:11:18;;;;;;;;;;;;;;;;;;5070568;28;20507;-81
2023/11/24 14:13:45;;;;;;;;;;;;;;;;;;5087502;28;20030;-81
2023/11/24 14:16:11;;;;;;;;;;;;;;;;;;5088283;28;20236;-81
2023/11/24 14:18:36;;;;;;;;;;;;;;;;;;5088813;28;19908;-82
2023/11/24 14:21:04;;;;;;;;;;;;;;;;;;5075401;28;19944;-81
2023/11/24 14:23:31;;;;;;;;;;;;;;;;;;5062914;28;19915;-81
2023/11/24 14:25:57;;;;;;;;;;;;;;;;;;5083942;28;19909;-82
2023/11/24 14:28:23;;;;;;;;;;;;;;;;;;5070508;28;20286;-82
2023/11/24 14:30:51;;;;;;;;;;;;;;;;;;5069490;28;19912;-82
2023/11/24 14:33:17;;;;;;;;;;;;;;;;;;5088774;28;19920;-81
2023/11/24 14:35:43;;;;;;;;;;;;;;;;;;5085650;28;19947;-81
2023/11/24 14:38:09;;;;;;;;;;;;;;;;;;5078058;28;19947;-81
2023/11/24 14:40:34;;;;;;;;;;;;;;;;;;5086133;28;19955;-81
2023/11/24 14:43:00;;;;;;;;;;;;;;;;;;5090104;28;19922;-81
2023/11/24 14:45:26;;;;;;;;;;;;;;;;;;5089207;28;19915;-81
2023/11/24 14:47:54;;;;;;;;;;;;;;;;;;5086921;28;19947;-82
2023/11/24 14:50:25;;;;;;;;;;;;;;;;;;5079570;28;20669;-81
2023/11/24 14:52:51;;;;;;;;;;;;;;;;;;5083812;28;20390;-81
2023/11/24 14:55:21;;;;;;;;;;;;;;;;;;5065493;28;19995;-81
2023/11/24 14:57:47;;;;;;;;;;;;;;;;;;5087875;28;20361;-81
2023/11/24 15:00:29;;;;;;;;;;;;;;;;;;5083095;28;20033;-81
2023/11/24 15:02:55;;;;;;;;;;;;;;;;;;5088231;28;19919;-81
2023/11/24 15:05:21;;;;;;;;;;;;;;;;;;5084774;28;19912;-82
2023/11/24 15:07:47;;;;;;;;;;;;;;;;;;5086329;28;20339;-80
2023/11/24 15:10:13;;;;;;;;;;;;;;;;;;5087506;28;20302;-81
2023/11/24 15:12:43;;;;;;;;;;;;;;;;;;5086141;28;19965;-81
2023/11/24 15:15:09;;;;;;;;;;;;;;;;;;5089614;28;20324;-82
2023/11/24 15:17:37;;;;;;;;;;;;;;;;;;5069287;28;19970;-80
2023/11/24 15:20:08;;;;;;;;;;;;;;;;;;5089669;28;19991;-82
2023/11/24 15:22:36;;;;;;;;;;;;;;;;;;5083760;28;20301;-79
2023/11/24 15:25:02;;;;;;;;;;;;;;;;;;5084115;28;19908;-79
2023/11/24 15:27:30;;;;;;;;;;;;;;;;;;5051481;28;20492;-79
2023/11/24 15:29:56;;;;;;;;;;;;;;;;;;5074990;28;20303;-79
2023/11/24 15:32:22;;;;;;;;;;;;;;;;;;5088675;28;20027;-78
2023/11/24 15:34:48;;;;;;;;;;;;;;;;;;5086560;28;19908;-79
2023/11/24 15:37:14;;;;;;;;;;;;;;;;;;5086267;28;19908;-79
2023/11/24 15:39:40;;;;;;;;;;;;;;;;;;5089594;28;19943;-80
2023/11/24 15:42:07;;;;;;;;;;;;;;;;;;5087322;28;19915;-79
2023/11/24 15:44:33;;;;;;;;;;;;;;;;;;5086551;28;19995;-79
2023/11/24 15:47:02;;;;;;;;;;;;;;;;;;5088214;28;20295;-79
2023/11/24 15:49:27;;;;;;;;;;;;;;;;;;5089529;28;20384;-81
2023/11/24 15:51:53;;;;;;;;;;;;;;;;;;5087395;28;20019;-81
2023/11/24 15:54:24;;;;;;;;;;;;;;;;;;5088478;28;19947;-82
2023/11/24 15:56:50;;;;;;;;;;;;;;;;;;5063764;28;19912;-81
2023/11/24 15:59:22;;;;;;;;;;;;;;;;;;5084420;28;19972;-81
2023/11/24 16:01:51;;;;;;;;;;;;;;;;;;5077706;28;20283;-80
2023/11/24 16:04:17;;;;;;;;;;;;;;;;;;5088305;28;19927;-81
2023/11/24 16:06:47;;;;;;;;;;;;;;;;;;5079163;28;20027;-81
2023/11/24 16:09:15;;;;;;;;;;;;;;;;;;5069439;28;19935;-80
2023/11/24 16:11:47;;;;;;;;;;;;;;;;;;5087970;28;19912;-81
2023/11/24 16:14:12;;;;;;;;;;;;;;;;;;5088155;28;20362;-80
2023/11/24 16:16:42;;;;;;;;;;;;;;;;;;5080203;28;20007;-80
2023/11/24 16:19:08;;;;;;;;;;;;;;;;;;5069031;28;20303;-81
2023/11/24 16:21:34;;;;;;;;;;;;;;;;;;5073507;28;20177;-80
2023/11/24 16:24:00;;;;;;;;;;;;;;;;;;5068782;28;20012;-82
2023/11/24 16:26:26;;;;;;;;;;;;;;;;;;5081868;28;20402;-83
2023/11/24 16:28:52;;;;;;;;;;;;;;;;;;5082095;28;20325;-81
2023/11/24 16:31:18;;;;;;;;;;;;;;;;;;5087867;28;19939;-82
2023/11/24 16:33:44;;;;;;;;;;;;;;;;;;5088461;28;19951;-82
2023/11/24 16:36:11;;;;;;;;;;;;;;;;;;5084204;28;20002;-82
2023/11/24 16:38:37;;;;;;;;;;;;;;;;;;5089184;28;19904;-83
2023/11/24 16:41:03;;;;;;;;;;;;;;;;;;5089588;28;19991;-82